createdAt,value
2019-03-15T00:01:35.700Z,89.91
2019-03-15T00:04:04.277Z,89.49
2019-03-15T00:06:32.735Z,89.36
2019-03-15T00:09:01.137Z,89.79
2019-03-15T00:11:29.565Z,89.51
2019-03-15T00:13:57.959Z,89.47
2019-03-15T00:16:26.383Z,89.01
2019-03-15T00:18:54.767Z,88.62
2019-03-15T00:21:23.166Z,88.19
2019-03-15T00:23:51.603Z,87.13
2019-03-15T00:26:20.008Z,87.91
2019-03-15T00:28:48.439Z,87.47
2019-03-15T00:31:16.860Z,87.17
2019-03-15T00:33:45.272Z,87.37
2019-03-15T00:36:13.669Z,86.67
2019-03-15T00:38:42.069Z,87.46
2019-03-15T00:41:11.030Z,88.00
2019-03-15T00:43:39.464Z,87.51
2019-03-15T00:46:07.945Z,87.46
2019-03-15T00:48:36.344Z,87.79
2019-03-15T00:51:04.811Z,87.26
2019-03-15T00:53:33.235Z,87.79
2019-03-15T00:56:01.628Z,87.88
2019-03-15T00:58:30.054Z,88.07
2019-03-15T01:00:58.449Z,87.42
2019-03-15T01:03:26.891Z,87.74
2019-03-15T01:05:55.280Z,88.12
2019-03-15T01:08:23.771Z,88.17
2019-03-15T01:10:52.191Z,88.07
2019-03-15T01:13:20.648Z,87.51
2019-03-15T01:15:49.071Z,87.48
2019-03-15T01:18:18.439Z,87.90
2019-03-15T01:20:47.037Z,87.77
2019-03-15T01:23:15.442Z,87.88
2019-03-15T01:25:43.859Z,88.04
2019-03-15T01:28:12.254Z,88.32
2019-03-15T01:30:40.689Z,88.60
2019-03-15T01:33:09.117Z,88.04
2019-03-15T01:35:37.513Z,88.21
2019-03-15T01:38:05.919Z,88.42
2019-03-15T01:40:34.340Z,88.23
2019-03-15T01:43:02.733Z,88.33
2019-03-15T01:45:31.194Z,87.93
2019-03-15T01:47:59.609Z,88.00
2019-03-15T01:50:28.114Z,87.72
2019-03-15T01:52:56.517Z,87.20
2019-03-15T01:55:24.936Z,87.61
2019-03-15T01:57:53.504Z,87.88
2019-03-15T02:00:22.095Z,87.77
2019-03-15T02:02:50.577Z,87.55
2019-03-15T02:05:19.004Z,87.49
2019-03-15T02:07:47.488Z,87.49
2019-03-15T02:10:15.878Z,88.29
2019-03-15T02:12:44.296Z,88.30
2019-03-15T02:15:12.788Z,88.41
2019-03-15T02:17:41.188Z,88.13
2019-03-15T02:20:09.720Z,88.12
2019-03-15T02:22:38.170Z,88.00
2019-03-15T02:25:06.811Z,88.21
2019-03-15T02:27:35.226Z,87.30
2019-03-15T02:30:05.359Z,88.25
2019-03-15T02:32:33.772Z,87.86
2019-03-15T02:35:02.197Z,88.10
2019-03-15T02:37:30.600Z,87.61
2019-03-15T02:39:58.994Z,88.15
2019-03-15T02:42:27.463Z,87.87
2019-03-15T02:44:55.882Z,87.98
2019-03-15T02:47:24.298Z,87.06
2019-03-15T02:49:52.697Z,87.12
2019-03-15T02:52:21.181Z,87.13
2019-03-15T02:54:49.603Z,86.99
2019-03-15T02:57:18.007Z,87.32
2019-03-15T02:59:47.238Z,86.50
2019-03-15T03:02:16.002Z,86.47
2019-03-15T03:04:44.403Z,86.37
2019-03-15T03:07:12.812Z,86.17
2019-03-15T03:09:41.208Z,86.71
2019-03-15T03:12:09.695Z,86.95
2019-03-15T03:14:38.115Z,87.32
2019-03-15T03:17:06.506Z,87.38
2019-03-15T03:19:34.928Z,87.52
2019-03-15T03:22:03.342Z,87.62
2019-03-15T03:24:31.760Z,87.81
2019-03-15T03:27:00.184Z,87.59
2019-03-15T03:29:28.601Z,86.70
2019-03-15T03:31:56.984Z,86.64
2019-03-15T03:34:25.382Z,86.70
2019-03-15T03:36:57.636Z,87.18
2019-03-15T03:39:24.023Z,87.50
2019-03-15T03:41:52.419Z,87.55
2019-03-15T03:44:20.873Z,87.63
2019-03-15T03:46:49.272Z,87.62
2019-03-15T03:49:17.690Z,87.53
2019-03-15T03:51:46.086Z,87.98
2019-03-15T03:54:14.566Z,88.09
2019-03-15T03:56:43.505Z,88.55
2019-03-15T03:59:12.023Z,89.07
2019-03-15T04:01:40.549Z,89.17
2019-03-15T04:04:09.679Z,88.92
2019-03-15T04:06:38.163Z,89.19
2019-03-15T04:09:08.102Z,88.86
2019-03-15T04:11:36.504Z,88.84
2019-03-15T04:14:05.063Z,89.59
2019-03-15T04:16:33.477Z,89.38
2019-03-15T04:19:02.243Z,89.49
2019-03-15T04:21:30.738Z,89.07
2019-03-15T04:23:59.201Z,89.10
2019-03-15T04:26:27.618Z,88.64
2019-03-15T04:28:57.131Z,89.19
2019-03-15T04:31:25.707Z,89.28
2019-03-15T04:33:54.112Z,89.30
2019-03-15T04:36:22.509Z,89.57
2019-03-15T04:38:51.214Z,89.18
2019-03-15T04:41:19.636Z,88.92
2019-03-15T04:43:48.026Z,89.09
2019-03-15T04:46:16.459Z,88.69
2019-03-15T04:48:44.850Z,88.94
2019-03-15T04:51:13.268Z,89.07
2019-03-15T04:53:41.676Z,88.89
2019-03-15T04:56:10.081Z,88.60
2019-03-15T04:58:38.498Z,89.03
2019-03-15T05:01:06.966Z,88.80
2019-03-15T05:03:35.450Z,88.82
2019-03-15T05:06:04.200Z,89.09
2019-03-15T05:08:32.728Z,88.87
2019-03-15T05:11:01.140Z,88.92
2019-03-15T05:13:29.566Z,88.89
2019-03-15T05:15:57.969Z,89.24
2019-03-15T05:18:26.360Z,89.46
2019-03-15T05:20:54.836Z,89.32
2019-03-15T05:23:23.283Z,89.46
2019-03-15T05:25:51.670Z,90.20
2019-03-15T05:28:20.157Z,90.79
2019-03-15T05:30:48.572Z,90.98
2019-03-15T05:33:16.969Z,91.38
2019-03-15T05:35:45.437Z,91.89
2019-03-15T05:38:13.857Z,91.87
2019-03-15T05:40:42.272Z,91.83
2019-03-15T05:43:10.708Z,91.90
2019-03-15T05:45:39.115Z,92.23
2019-03-15T05:48:07.520Z,93.14
2019-03-15T05:50:35.914Z,93.44
2019-03-15T05:53:04.382Z,93.61
2019-03-15T05:55:32.815Z,93.98
2019-03-15T05:58:01.228Z,94.30
2019-03-15T06:00:29.611Z,94.46
2019-03-15T06:02:58.050Z,94.79
2019-03-15T06:05:26.532Z,95.32
2019-03-15T06:07:54.950Z,95.32
2019-03-15T06:10:23.430Z,95.76
2019-03-15T06:12:51.856Z,96.10
2019-03-15T06:15:20.327Z,95.97
2019-03-15T06:17:48.730Z,96.21
2019-03-15T06:20:17.256Z,96.25
2019-03-15T06:22:45.727Z,96.48
2019-03-15T06:25:14.289Z,96.69
2019-03-15T06:27:42.710Z,97.05
2019-03-15T06:30:13.600Z,97.11
2019-03-15T06:32:42.007Z,97.21
2019-03-15T06:35:10.574Z,97.73
2019-03-15T06:37:39.039Z,97.89
2019-03-15T06:40:13.650Z,98.07
2019-03-15T06:42:41.519Z,98.32
2019-03-15T06:45:12.409Z,98.46
2019-03-15T06:47:40.894Z,98.53
2019-03-15T06:50:09.951Z,98.82
2019-03-15T06:52:38.345Z,99.18
2019-03-15T06:55:09.863Z,99.29
2019-03-15T06:57:38.390Z,99.76
2019-03-15T07:00:17.110Z,100.00
2019-03-15T07:02:46.013Z,100.00
2019-03-15T07:05:14.862Z,100.00
2019-03-15T07:07:43.274Z,100.00
2019-03-15T07:10:12.109Z,100.00
2019-03-15T07:12:40.916Z,100.00
2019-03-15T07:15:11.018Z,100.00
2019-03-15T07:17:39.562Z,100.00
2019-03-15T07:20:11.089Z,100.00
2019-03-15T07:22:39.514Z,100.00
2019-03-15T07:25:09.549Z,100.00
2019-03-15T07:27:38.104Z,100.00
2019-03-15T07:30:14.534Z,100.00
2019-03-15T07:32:43.020Z,100.00
2019-03-15T07:35:11.438Z,100.00
2019-03-15T07:37:39.815Z,100.00
2019-03-15T07:40:10.356Z,100.00
2019-03-15T07:42:38.895Z,100.00
2019-03-15T07:45:14.104Z,100.00
2019-03-15T07:47:42.543Z,100.00
2019-03-15T07:50:14.974Z,100.00
2019-03-15T07:52:43.524Z,100.00
2019-03-15T07:55:11.993Z,100.00
2019-03-15T07:57:40.447Z,100.00
2019-03-15T08:00:16.004Z,100.00
2019-03-15T08:02:44.538Z,100.00
2019-03-15T08:05:13.107Z,100.00
2019-03-15T08:07:45.259Z,100.00
2019-03-15T08:10:13.431Z,100.00
2019-03-15T08:12:41.851Z,100.00
2019-03-15T08:15:12.202Z,100.00
2019-03-15T08:17:40.591Z,100.00
2019-03-15T08:20:11.042Z,100.00
2019-03-15T08:22:39.459Z,100.00
2019-03-15T08:25:10.544Z,100.00
2019-03-15T08:27:38.986Z,100.00
2019-03-15T08:30:13.227Z,100.00
2019-03-15T08:32:43.472Z,100.00
2019-03-15T08:35:13.001Z,100.00
2019-03-15T08:37:41.535Z,100.00
2019-03-15T08:40:12.271Z,100.00
2019-03-15T08:42:40.912Z,100.00
2019-03-15T08:45:12.325Z,100.00
2019-03-15T08:47:40.737Z,100.00
2019-03-15T08:50:15.450Z,100.00
2019-03-15T08:52:44.073Z,100.00
2019-03-15T08:55:13.531Z,100.00
2019-03-15T08:57:42.076Z,100.00
2019-03-15T09:00:20.212Z,100.00
2019-03-15T09:02:48.727Z,100.00
2019-03-15T09:05:17.652Z,100.00
2019-03-15T09:07:46.199Z,100.00
2019-03-15T09:10:24.180Z,100.00
2019-03-15T09:12:46.084Z,100.00
2019-03-15T09:15:14.763Z,100.00
2019-03-15T09:17:43.250Z,100.00
2019-03-15T09:20:15.647Z,100.00
2019-03-15T09:22:44.155Z,100.00
2019-03-15T09:25:20.617Z,100.00
2019-03-15T09:27:49.587Z,100.00
2019-03-15T09:30:23.540Z,100.00
2019-03-15T09:32:48.403Z,100.00
2019-03-15T09:35:16.799Z,100.00
2019-03-15T09:37:47.217Z,100.00
2019-03-15T09:40:16.285Z,100.00
2019-03-15T09:42:44.752Z,100.00
2019-03-15T09:45:15.342Z,100.00
2019-03-15T09:47:43.783Z,100.00
2019-03-15T09:50:23.120Z,100.00
2019-03-15T09:52:43.726Z,100.00
2019-03-15T09:55:13.195Z,100.00
2019-03-15T09:57:41.609Z,100.00
2019-03-15T10:00:17.143Z,100.00
2019-03-15T10:02:45.704Z,100.00
2019-03-15T10:05:14.248Z,100.00
2019-03-15T10:07:43.688Z,100.00
2019-03-15T10:10:19.949Z,100.00
2019-03-15T10:12:48.472Z,100.00
2019-03-15T10:15:17.883Z,100.00
2019-03-15T10:17:46.522Z,100.00
2019-03-15T10:20:15.671Z,100.00
2019-03-15T10:22:44.212Z,100.00
2019-03-15T10:25:15.083Z,100.00
2019-03-15T10:27:43.657Z,100.00
2019-03-15T10:30:14.443Z,100.00
2019-03-15T10:32:42.993Z,100.00
2019-03-15T10:35:11.579Z,100.00
2019-03-15T10:37:39.991Z,100.00
2019-03-15T10:40:11.457Z,100.00
2019-03-15T10:42:39.958Z,100.00
2019-03-15T10:45:09.925Z,100.00
2019-03-15T10:47:38.409Z,100.00
2019-03-15T10:50:12.350Z,100.00
2019-03-15T10:52:40.769Z,100.00
2019-03-15T10:55:09.710Z,100.00
2019-03-15T10:57:38.215Z,100.00
2019-03-15T11:00:12.510Z,100.00
2019-03-15T11:02:41.078Z,100.00
2019-03-15T11:05:10.530Z,100.00
2019-03-15T11:07:39.070Z,100.00
2019-03-15T11:10:10.231Z,100.00
2019-03-15T11:12:38.683Z,100.00
2019-03-15T11:15:14.981Z,100.00
2019-03-15T11:17:43.476Z,100.00
2019-03-15T11:20:12.848Z,100.00
2019-03-15T11:22:41.323Z,100.00
2019-03-15T11:25:10.883Z,100.00
2019-03-15T11:27:39.330Z,100.00
2019-03-15T11:30:10.237Z,100.00
2019-03-15T11:32:38.641Z,100.00
2019-03-15T11:35:08.974Z,100.00
2019-03-15T11:37:37.384Z,100.00
2019-03-15T11:40:08.871Z,100.00
2019-03-15T11:42:37.292Z,100.00
2019-03-15T11:45:07.751Z,100.00
2019-03-15T11:47:56.430Z,100.00
2019-03-15T11:50:12.855Z,100.00
2019-03-15T11:52:41.285Z,100.00
2019-03-15T11:55:10.280Z,100.00
2019-03-15T11:57:38.768Z,100.00
2019-03-15T12:00:13.139Z,100.00
2019-03-15T12:02:41.711Z,100.00
2019-03-15T12:05:11.174Z,100.00
2019-03-15T12:07:39.574Z,100.00
2019-03-15T12:10:13.458Z,100.00
2019-03-15T12:12:41.926Z,100.00
2019-03-15T12:15:17.418Z,100.00
2019-03-15T12:17:45.822Z,100.00
2019-03-15T12:20:14.492Z,100.00
2019-03-15T12:22:42.954Z,100.00
2019-03-15T12:25:12.395Z,100.00
2019-03-15T12:27:40.803Z,100.00
2019-03-15T12:30:14.778Z,100.00
2019-03-15T12:32:43.279Z,100.00
2019-03-15T12:35:12.747Z,100.00
2019-03-15T12:37:41.187Z,100.00
2019-03-15T12:40:17.998Z,100.00
2019-03-15T12:42:46.488Z,100.00
2019-03-15T12:45:15.551Z,100.00
2019-03-15T12:47:44.141Z,100.00
2019-03-15T12:50:13.762Z,99.41
2019-03-15T12:52:47.651Z,98.47
2019-03-15T12:55:13.459Z,98.49
2019-03-15T12:57:41.963Z,98.84
2019-03-15T13:00:13.062Z,99.36
2019-03-15T13:02:41.510Z,99.68
2019-03-15T13:05:10.054Z,98.67
2019-03-15T13:07:38.458Z,97.58
2019-03-15T13:10:15.504Z,97.41
2019-03-15T13:12:43.937Z,98.01
2019-03-15T13:15:16.261Z,97.37
2019-03-15T13:17:44.663Z,96.72
2019-03-15T13:20:16.819Z,96.27
2019-03-15T13:22:45.231Z,96.62
2019-03-15T13:25:13.905Z,96.39
2019-03-15T13:27:42.375Z,96.53
2019-03-15T13:30:15.708Z,95.52
2019-03-15T13:32:44.198Z,95.74
2019-03-15T13:35:13.464Z,96.11
2019-03-15T13:37:43.107Z,96.35
2019-03-15T13:40:16.834Z,96.50
2019-03-15T13:42:45.287Z,96.81
2019-03-15T13:45:14.761Z,96.08
2019-03-15T13:47:43.176Z,95.94
2019-03-15T13:50:16.787Z,95.78
2019-03-15T13:52:45.202Z,96.20
2019-03-15T13:55:13.905Z,96.15
2019-03-15T13:57:42.370Z,96.02
2019-03-15T14:00:13.851Z,96.03
2019-03-15T14:02:42.420Z,96.16
2019-03-15T14:05:10.898Z,96.43
2019-03-15T14:07:39.431Z,96.75
2019-03-15T14:10:10.889Z,96.27
2019-03-15T14:12:39.391Z,96.27
2019-03-15T14:15:20.716Z,96.52
2019-03-15T14:17:49.189Z,96.62
2019-03-15T14:20:17.669Z,96.73
2019-03-15T14:22:46.135Z,96.66
2019-03-15T14:25:16.385Z,96.96
2019-03-15T14:27:44.792Z,96.84
2019-03-15T14:30:14.581Z,96.84
2019-03-15T14:32:43.064Z,97.02
2019-03-15T14:35:11.837Z,96.73
2019-03-15T14:37:40.365Z,97.08
2019-03-15T14:40:12.981Z,96.65
2019-03-15T14:42:41.601Z,96.85
2019-03-15T14:45:16.474Z,96.30
2019-03-15T14:47:45.058Z,96.53
2019-03-15T14:50:14.507Z,96.16
2019-03-15T14:52:42.912Z,95.64
2019-03-15T14:55:12.970Z,95.46
2019-03-15T14:57:52.180Z,95.21
2019-03-15T15:00:16.869Z,95.34
2019-03-15T15:02:45.349Z,94.83
2019-03-15T15:05:13.914Z,95.23
2019-03-15T15:07:42.449Z,94.94
2019-03-15T15:10:17.531Z,95.05
2019-03-15T15:12:46.049Z,95.69
2019-03-15T15:15:15.737Z,95.68
2019-03-15T15:17:44.284Z,95.97
2019-03-15T15:20:13.253Z,96.34
2019-03-15T15:22:41.780Z,96.11
2019-03-15T15:25:11.868Z,96.36
2019-03-15T15:27:40.479Z,96.35
2019-03-15T15:30:16.007Z,96.48
2019-03-15T15:32:44.496Z,95.88
2019-03-15T15:35:14.456Z,95.40
2019-03-15T15:37:42.892Z,95.30
2019-03-15T15:40:18.640Z,95.46
2019-03-15T15:42:47.144Z,95.32
2019-03-15T15:45:15.694Z,95.48
2019-03-15T15:47:44.124Z,95.93
2019-03-15T15:50:14.642Z,96.60
2019-03-15T15:52:43.320Z,97.08
2019-03-15T15:55:13.184Z,97.63
2019-03-15T15:57:41.624Z,98.44
2019-03-15T16:00:15.624Z,99.37
2019-03-15T16:02:44.116Z,99.98
2019-03-15T16:05:12.744Z,100.00
2019-03-15T16:07:41.167Z,100.00
2019-03-15T16:10:12.476Z,100.00
2019-03-15T16:12:41.004Z,100.00
2019-03-15T16:15:17.137Z,100.00
2019-03-15T16:17:46.074Z,100.00
2019-03-15T16:20:14.707Z,100.00
2019-03-15T16:22:43.244Z,100.00
2019-03-15T16:25:12.663Z,100.00
2019-03-15T16:27:41.158Z,100.00
2019-03-15T16:30:20.070Z,100.00
2019-03-15T16:32:48.638Z,100.00
2019-03-15T16:35:17.057Z,100.00
2019-03-15T16:37:45.517Z,100.00
2019-03-15T16:40:17.118Z,100.00
2019-03-15T16:42:45.513Z,100.00
2019-03-15T16:45:25.665Z,100.00
2019-03-15T16:47:54.106Z,100.00
2019-03-15T16:50:22.555Z,100.00
2019-03-15T16:52:51.005Z,100.00
2019-03-15T16:55:19.457Z,100.00
2019-03-15T16:57:47.948Z,100.00
2019-03-15T17:00:17.083Z,100.00
2019-03-15T17:02:45.576Z,100.00
2019-03-15T17:05:14.682Z,100.00
2019-03-15T17:07:43.399Z,100.00
2019-03-15T17:10:19.006Z,100.00
2019-03-15T17:12:47.458Z,100.00
2019-03-15T17:15:20.420Z,100.00
2019-03-15T17:17:48.832Z,100.00
2019-03-15T17:20:17.285Z,100.00
2019-03-15T17:22:45.737Z,100.00
2019-03-15T17:25:14.376Z,100.00
2019-03-15T17:27:42.760Z,100.00
2019-03-15T17:30:13.304Z,100.00
2019-03-15T17:32:41.885Z,100.00
2019-03-15T17:35:13.055Z,100.00
2019-03-15T17:37:41.623Z,100.00
2019-03-15T17:40:12.461Z,100.00
2019-03-15T17:42:40.940Z,100.00
2019-03-15T17:45:09.913Z,100.00
2019-03-15T17:47:38.394Z,100.00
2019-03-15T17:50:12.335Z,100.00
2019-03-15T17:52:40.815Z,100.00
2019-03-15T17:55:09.483Z,100.00
2019-03-15T17:57:38.030Z,100.00
2019-03-15T18:00:12.388Z,100.00
2019-03-15T18:02:40.867Z,100.00
2019-03-15T18:05:09.829Z,100.00
2019-03-15T18:07:38.342Z,100.00
2019-03-15T18:10:08.592Z,100.00
2019-03-15T18:12:37.037Z,100.00
2019-03-15T18:15:07.914Z,100.00
2019-03-15T18:17:36.422Z,100.00
2019-03-15T18:20:07.280Z,100.00
2019-03-15T18:22:35.759Z,100.00
2019-03-15T18:25:06.009Z,100.00
2019-03-15T18:27:34.582Z,100.00
2019-03-15T18:30:03.064Z,100.00
2019-03-15T18:32:31.504Z,100.00
2019-03-15T18:34:59.939Z,100.00
2019-03-15T18:37:28.432Z,100.00
2019-03-15T18:39:57.163Z,100.00
2019-03-15T18:42:25.678Z,100.00
2019-03-15T18:44:54.118Z,100.00
2019-03-15T18:47:22.552Z,99.78
2019-03-15T18:49:51.024Z,99.06
2019-03-15T18:52:19.487Z,98.77
2019-03-15T18:54:47.886Z,98.33
2019-03-15T18:57:16.374Z,99.22
2019-03-15T18:59:44.782Z,98.45
2019-03-15T19:02:13.205Z,98.90
2019-03-15T19:04:41.695Z,98.63
2019-03-15T19:07:10.109Z,98.67
2019-03-15T19:09:38.496Z,98.79
2019-03-15T19:12:06.986Z,98.24
2019-03-15T19:14:35.446Z,98.52
2019-03-15T19:17:03.876Z,97.78
2019-03-15T19:19:32.365Z,97.25
2019-03-15T19:22:00.775Z,96.85
2019-03-15T19:24:29.238Z,97.01
2019-03-15T19:26:57.620Z,96.54
2019-03-15T19:29:26.110Z,97.54
2019-03-15T19:31:54.521Z,96.46
2019-03-15T19:34:22.973Z,96.41
2019-03-15T19:36:51.419Z,96.37
2019-03-15T19:39:19.887Z,95.42
2019-03-15T19:41:48.300Z,96.25
2019-03-15T19:44:16.703Z,96.72
2019-03-15T19:46:45.093Z,97.34
2019-03-15T19:49:13.519Z,94.81
2019-03-15T19:51:41.920Z,96.19
2019-03-15T19:54:10.339Z,97.71
2019-03-15T19:56:38.785Z,97.38
2019-03-15T19:59:07.179Z,97.14
2019-03-15T20:01:35.637Z,96.86
2019-03-15T20:04:04.085Z,97.45
2019-03-15T20:06:32.478Z,96.37
2019-03-15T20:09:00.926Z,96.61
2019-03-15T20:11:29.326Z,96.07
2019-03-15T20:13:57.829Z,95.69
2019-03-15T20:16:26.251Z,95.92
2019-03-15T20:18:54.659Z,95.68
2019-03-15T20:21:23.054Z,96.37
2019-03-15T20:23:51.515Z,95.81
2019-03-15T20:26:20.061Z,96.07
2019-03-15T20:28:48.558Z,95.90
2019-03-15T20:31:17.014Z,95.35
2019-03-15T20:33:45.442Z,96.02
2019-03-15T20:36:13.847Z,96.45
2019-03-15T20:38:42.299Z,96.40
2019-03-15T20:41:10.775Z,96.19
2019-03-15T20:43:39.217Z,95.26
2019-03-15T20:46:07.667Z,96.18
2019-03-15T20:48:36.072Z,96.23
2019-03-15T20:51:04.652Z,96.67
2019-03-15T20:53:33.304Z,96.77
2019-03-15T20:56:01.786Z,96.93
2019-03-15T20:58:30.218Z,96.55
2019-03-15T21:00:58.803Z,96.57
2019-03-15T21:03:27.213Z,95.79
2019-03-15T21:05:55.711Z,95.98
2019-03-15T21:08:24.132Z,96.32
2019-03-15T21:10:52.543Z,96.42
2019-03-15T21:13:20.981Z,95.34
2019-03-15T21:15:49.430Z,95.48
2019-03-15T21:18:17.863Z,94.29
2019-03-15T21:20:46.317Z,95.55
2019-03-15T21:23:14.727Z,94.13
2019-03-15T21:25:43.150Z,95.14
2019-03-15T21:28:11.563Z,95.20
2019-03-15T21:30:48.399Z,95.05
2019-03-15T21:33:10.124Z,95.72
2019-03-15T21:35:38.533Z,94.60
2019-03-15T21:38:06.968Z,93.94
2019-03-15T21:40:35.369Z,95.03
2019-03-15T21:43:03.774Z,95.40
2019-03-15T21:45:32.199Z,94.65
2019-03-15T21:48:00.636Z,94.79
2019-03-15T21:50:29.015Z,95.26
2019-03-15T21:52:57.531Z,95.56
2019-03-15T21:55:25.961Z,95.32
2019-03-15T21:57:54.394Z,95.37
2019-03-15T22:00:22.874Z,94.81
2019-03-15T22:02:51.368Z,95.20
2019-03-15T22:05:19.829Z,95.30
2019-03-15T22:07:48.256Z,95.77
2019-03-15T22:10:17.394Z,96.07
2019-03-15T22:12:45.806Z,97.13
2019-03-15T22:15:14.487Z,96.77
2019-03-15T22:17:43.018Z,96.46
2019-03-15T22:20:16.261Z,96.95
2019-03-15T22:22:44.677Z,96.38
2019-03-15T22:25:13.352Z,96.60
2019-03-15T22:27:41.829Z,96.94
2019-03-15T22:30:15.405Z,97.02
2019-03-15T22:32:43.901Z,96.69
2019-03-15T22:35:13.907Z,96.74
2019-03-15T22:37:42.458Z,96.69
2019-03-15T22:40:12.531Z,97.44
2019-03-15T22:42:41.810Z,98.35
2019-03-15T22:45:16.305Z,99.13
2019-03-15T22:47:44.774Z,99.74
2019-03-15T22:50:14.463Z,100.00
2019-03-15T22:52:42.948Z,100.00
2019-03-15T22:55:11.934Z,100.00
2019-03-15T22:57:40.648Z,100.00
2019-03-15T23:00:17.824Z,100.00
2019-03-15T23:02:46.501Z,100.00
2019-03-15T23:05:15.049Z,100.00
2019-03-15T23:07:43.563Z,100.00
2019-03-15T23:10:12.104Z,100.00
2019-03-15T23:12:40.617Z,100.00
2019-03-15T23:15:10.673Z,100.00
2019-03-15T23:17:39.164Z,100.00
2019-03-15T23:20:09.939Z,100.00
2019-03-15T23:22:38.394Z,100.00
2019-03-15T23:25:08.229Z,100.00
2019-03-15T23:27:36.653Z,100.00
2019-03-15T23:30:16.297Z,100.00
2019-03-15T23:32:44.957Z,100.00
2019-03-15T23:35:13.473Z,100.00
2019-03-15T23:37:41.939Z,100.00
2019-03-15T23:40:12.818Z,100.00
2019-03-15T23:42:41.254Z,100.00
2019-03-15T23:45:10.988Z,100.00
2019-03-15T23:47:39.435Z,100.00
2019-03-15T23:50:10.899Z,100.00
2019-03-15T23:52:39.293Z,100.00
2019-03-15T23:55:08.645Z,100.00
2019-03-15T23:57:37.267Z,100.00
